sensor_id;sensor_type;location;lat;lon;timestamp;pressure;altitude;pressure_sealevel;temperature;humidity
29505;BME280;16452;54.174;12.092;2022-08-19T00:01:38;100938.16;;;25.97;88.89
29505;BME280;16452;54.174;12.092;2022-08-19T00:04:08;100936.53;;;26.11;87.95
29505;BME280;16452;54.174;12.092;2022-08-19T00:06:37;100938.59;;;26.09;87.62
29505;BME280;16452;54.174;12.092;2022-08-19T00:09:07;100922.16;;;25.89;88.80
29505;BME280;16452;54.174;12.092;2022-08-19T00:11:33;100922.16;;;25.89;90.14
29505;BME280;16452;54.174;12.092;2022-08-19T00:14:06;100926.16;;;25.46;93.50
29505;BME280;16452;54.174;12.092;2022-08-19T00:16:32;100933.06;;;25.32;95.22
29505;BME280;16452;54.174;12.092;2022-08-19T00:18:59;100933.53;;;25.28;96.10
29505;BME280;16452;54.174;12.092;2022-08-19T00:21:26;100932.84;;;25.34;96.33
29505;BME280;16452;54.174;12.092;2022-08-19T00:23:56;100941.44;;;25.21;97.96
29505;BME280;16452;54.174;12.092;2022-08-19T00:26:27;100927.50;;;25.42;96.95
29505;BME280;16452;54.174;12.092;2022-08-19T00:28:53;100934.38;;;25.36;97.60
29505;BME280;16452;54.174;12.092;2022-08-19T00:31:19;100932.81;;;25.58;96.10
29505;BME280;16452;54.174;12.092;2022-08-19T00:33:46;100926.00;;;25.40;96.80
29505;BME280;16452;54.174;12.092;2022-08-19T00:36:13;100930.34;;;25.41;96.96
29505;BME280;16452;54.174;12.092;2022-08-19T00:38:39;100932.84;;;25.34;97.48
29505;BME280;16452;54.174;12.092;2022-08-19T00:41:13;100929.25;;;25.11;98.76
29505;BME280;16452;54.174;12.092;2022-08-19T00:43:40;100937.59;;;25.16;98.98
29505;BME280;16452;54.174;12.092;2022-08-19T00:46:07;100940.44;;;25.14;99.18
29505;BME280;16452;54.174;12.092;2022-08-19T00:48:34;100930.75;;;25.21;98.93
29505;BME280;16452;54.174;12.092;2022-08-19T00:51:02;100933.63;;;24.95;100.00
29505;BME280;16452;54.174;12.092;2022-08-19T00:53:31;100942.25;;;25.14;99.35
29505;BME280;16452;54.174;12.092;2022-08-19T00:55:59;100941.59;;;25.20;98.76
29505;BME280;16452;54.174;12.092;2022-08-19T00:58:34;100935.94;;;25.07;99.56
29505;BME280;16452;54.174;12.092;2022-08-19T01:01:01;100938.44;;;25.08;99.31
29505;BME280;16452;54.174;12.092;2022-08-19T01:03:27;100943.97;;;24.90;100.00
29505;BME280;16452;54.174;12.092;2022-08-19T01:05:54;100940.28;;;25.00;99.76
29505;BME280;16452;54.174;12.092;2022-08-19T01:08:20;100930.97;;;25.04;99.09
29505;BME280;16452;54.174;12.092;2022-08-19T01:10:52;100942.75;;;25.17;98.93
29505;BME280;16452;54.174;12.092;2022-08-19T01:13:25;100938.81;;;24.97;99.19
29505;BME280;16452;54.174;12.092;2022-08-19T01:16:00;100947.75;;;25.20;99.31
29505;BME280;16452;54.174;12.092;2022-08-19T01:18:28;100957.94;;;25.09;99.58
29505;BME280;16452;54.174;12.092;2022-08-19T01:20:58;100959.72;;;25.32;97.43
29505;BME280;16452;54.174;12.092;2022-08-19T01:23:24;100962.09;;;25.19;97.47
29505;BME280;16452;54.174;12.092;2022-08-19T01:26:14;100956.56;;;25.29;97.35
29505;BME280;16452;54.174;12.092;2022-08-19T01:28:42;100956.28;;;25.16;98.40
29505;BME280;16452;54.174;12.092;2022-08-19T01:31:14;100960.22;;;25.28;97.74
29505;BME280;16452;54.174;12.092;2022-08-19T01:33:40;100961.72;;;25.30;96.98
29505;BME280;16452;54.174;12.092;2022-08-19T01:36:26;100964.28;;;25.16;98.04
29505;BME280;16452;54.174;12.092;2022-08-19T01:38:52;100961.59;;;25.00;99.59
29505;BME280;16452;54.174;12.092;2022-08-19T01:41:18;100972.47;;;24.90;100.00
29505;BME280;16452;54.174;12.092;2022-08-19T01:43:45;100972.59;;;25.05;99.33
29505;BME280;16452;54.174;12.092;2022-08-19T01:46:11;100978.63;;;24.90;99.69
29505;BME280;16452;54.174;12.092;2022-08-19T01:48:41;100974.63;;;25.03;99.52
29505;BME280;16452;54.174;12.092;2022-08-19T01:51:09;100967.13;;;24.98;99.61
29505;BME280;16452;54.174;12.092;2022-08-19T01:53:36;100966.09;;;24.99;99.67
29505;BME280;16452;54.174;12.092;2022-08-19T01:56:04;100971.47;;;24.91;100.00
29505;BME280;16452;54.174;12.092;2022-08-19T01:58:36;100974.78;;;24.93;99.55
29505;BME280;16452;54.174;12.092;2022-08-19T02:01:05;100962.78;;;24.89;100.00
29505;BME280;16452;54.174;12.092;2022-08-19T02:03:31;100952.81;;;24.91;99.77
29505;BME280;16452;54.174;12.092;2022-08-19T02:05:59;100947.97;;;24.94;98.95
29505;BME280;16452;54.174;12.092;2022-08-19T02:08:27;100936.47;;;24.62;100.00
29505;BME280;16452;54.174;12.092;2022-08-19T02:10:53;100935.59;;;24.37;100.00
29505;BME280;16452;54.174;12.092;2022-08-19T02:13:19;100920.47;;;24.37;100.00
29505;BME280;16452;54.174;12.092;2022-08-19T02:15:45;100899.09;;;24.13;100.00
29505;BME280;16452;54.174;12.092;2022-08-19T02:18:11;100895.94;;;24.09;100.00
29505;BME280;16452;54.174;12.092;2022-08-19T02:20:39;100890.31;;;24.37;100.00
29505;BME280;16452;54.174;12.092;2022-08-19T02:23:06;100889.47;;;24.20;100.00
29505;BME280;16452;54.174;12.092;2022-08-19T02:25:32;100899.59;;;24.17;100.00
29505;BME280;16452;54.174;12.092;2022-08-19T02:27:58;100900.91;;;24.12;100.00
29505;BME280;16452;54.174;12.092;2022-08-19T02:30:26;100904.97;;;24.25;100.00
29505;BME280;16452;54.174;12.092;2022-08-19T02:32:52;100907.88;;;23.97;100.00
29505;BME280;16452;54.174;12.092;2022-08-19T02:35:19;100904.78;;;24.18;100.00
29505;BME280;16452;54.174;12.092;2022-08-19T02:37:45;100920.63;;;24.28;100.00
29505;BME280;16452;54.174;12.092;2022-08-19T02:40:30;100922.09;;;24.30;100.00
29505;BME280;16452;54.174;12.092;2022-08-19T02:43:03;100923.63;;;23.74;100.00
29505;BME280;16452;54.174;12.092;2022-08-19T02:45:35;100922.00;;;23.90;100.00
29505;BME280;16452;54.174;12.092;2022-08-19T02:48:02;100922.03;;;23.98;100.00
29505;BME280;16452;54.174;12.092;2022-08-19T02:50:28;100926.66;;;23.96;100.00
29505;BME280;16452;54.174;12.092;2022-08-19T02:52:54;100930.03;;;24.14;100.00
29505;BME280;16452;54.174;12.092;2022-08-19T02:55:20;100926.41;;;24.15;100.00
29505;BME280;16452;54.174;12.092;2022-08-19T02:57:46;100933.50;;;23.98;100.00
29505;BME280;16452;54.174;12.092;2022-08-19T03:00:13;100927.69;;;24.03;100.00
29505;BME280;16452;54.174;12.092;2022-08-19T03:02:40;100927.59;;;24.29;100.00
29505;BME280;16452;54.174;12.092;2022-08-19T03:05:09;100923.97;;;24.38;100.00
29505;BME280;16452;54.174;12.092;2022-08-19T03:07:36;100932.28;;;24.43;100.00
29505;BME280;16452;54.174;12.092;2022-08-19T03:10:04;100942.41;;;24.23;100.00
29505;BME280;16452;54.174;12.092;2022-08-19T03:12:30;100946.59;;;24.34;100.00
29505;BME280;16452;54.174;12.092;2022-08-19T03:14:56;100949.41;;;24.24;100.00
29505;BME280;16452;54.174;12.092;2022-08-19T03:17:22;100943.09;;;24.33;100.00
29505;BME280;16452;54.174;12.092;2022-08-19T03:19:48;100937.78;;;24.33;100.00
29505;BME280;16452;54.174;12.092;2022-08-19T03:22:13;100936.25;;;24.31;100.00
29505;BME280;16452;54.174;12.092;2022-08-19T03:24:39;100934.25;;;24.25;100.00
29505;BME280;16452;54.174;12.092;2022-08-19T03:27:05;100934.59;;;24.30;100.00
29505;BME280;16452;54.174;12.092;2022-08-19T03:29:32;100926.63;;;24.38;100.00
29505;BME280;16452;54.174;12.092;2022-08-19T03:32:03;100929.63;;;24.51;100.00
29505;BME280;16452;54.174;12.092;2022-08-19T03:34:33;100930.63;;;24.50;100.00
29505;BME280;16452;54.174;12.092;2022-08-19T03:37:08;100921.78;;;24.25;100.00
29505;BME280;16452;54.174;12.092;2022-08-19T03:39:37;100922.97;;;24.39;100.00
29505;BME280;16452;54.174;12.092;2022-08-19T03:42:04;100923.78;;;24.47;100.00
29505;BME280;16452;54.174;12.092;2022-08-19T03:44:31;100920.28;;;24.23;100.00
29505;BME280;16452;54.174;12.092;2022-08-19T03:46:59;100923.75;;;24.23;100.00
29505;BME280;16452;54.174;12.092;2022-08-19T03:49:30;100932.94;;;24.53;100.00
29505;BME280;16452;54.174;12.092;2022-08-19T03:51:58;100929.59;;;24.27;100.00
29505;BME280;16452;54.174;12.092;2022-08-19T03:54:27;100927.94;;;24.26;100.00
29505;BME280;16452;54.174;12.092;2022-08-19T03:56:56;100930.75;;;24.24;100.00
29505;BME280;16452;54.174;12.092;2022-08-19T03:59:30;100932.13;;;24.28;100.00
29505;BME280;16452;54.174;12.092;2022-08-19T04:02:00;100919.78;;;24.27;100.00
29505;BME280;16452;54.174;12.092;2022-08-19T04:04:27;100925.72;;;24.13;100.00
29505;BME280;16452;54.174;12.092;2022-08-19T04:06:54;100932.56;;;24.15;100.00
29505;BME280;16452;54.174;12.092;2022-08-19T04:09:20;100934.25;;;24.25;100.00
29505;BME280;16452;54.174;12.092;2022-08-19T04:11:53;100945.34;;;24.12;100.00
29505;BME280;16452;54.174;12.092;2022-08-19T04:14:27;100947.25;;;24.28;100.00
29505;BME280;16452;54.174;12.092;2022-08-19T04:16:55;100958.56;;;24.30;100.00
29505;BME280;16452;54.174;12.092;2022-08-19T04:19:20;100964.72;;;24.30;100.00
29505;BME280;16452;54.174;12.092;2022-08-19T04:21:50;100965.25;;;24.50;100.00
29505;BME280;16452;54.174;12.092;2022-08-19T04:24:17;100972.75;;;24.54;100.00
29505;BME280;16452;54.174;12.092;2022-08-19T04:26:44;100977.78;;;24.58;100.00
29505;BME280;16452;54.174;12.092;2022-08-19T04:29:16;100983.56;;;24.37;100.00
29505;BME280;16452;54.174;12.092;2022-08-19T04:31:44;100980.56;;;24.48;100.00
29505;BME280;16452;54.174;12.092;2022-08-19T04:34:13;100977.59;;;24.51;100.00
29505;BME280;16452;54.174;12.092;2022-08-19T04:36:42;100967.91;;;24.58;100.00
29505;BME280;16452;54.174;12.092;2022-08-19T04:39:15;100970.25;;;24.53;100.00
29505;BME280;16452;54.174;12.092;2022-08-19T04:41:42;100977.56;;;24.75;100.00
29505;BME280;16452;54.174;12.092;2022-08-19T04:44:27;100975.94;;;24.74;100.00
29505;BME280;16452;54.174;12.092;2022-08-19T04:46:56;100986.44;;;24.84;100.00
29505;BME280;16452;54.174;12.092;2022-08-19T04:49:23;100986.59;;;24.74;100.00
29505;BME280;16452;54.174;12.092;2022-08-19T04:51:51;100989.72;;;24.53;100.00
29505;BME280;16452;54.174;12.092;2022-08-19T04:54:20;100993.88;;;24.48;100.00
29505;BME280;16452;54.174;12.092;2022-08-19T04:56:49;100996.56;;;24.64;100.00
29505;BME280;16452;54.174;12.092;2022-08-19T04:59:16;101006.41;;;24.72;100.00
29505;BME280;16452;54.174;12.092;2022-08-19T05:01:44;100997.06;;;24.76;100.00
29505;BME280;16452;54.174;12.092;2022-08-19T05:04:14;101008.59;;;24.68;100.00
29505;BME280;16452;54.174;12.092;2022-08-19T05:06:39;101003.91;;;24.46;100.00
29505;BME280;16452;54.174;12.092;2022-08-19T05:09:05;101007.75;;;24.84;100.00
29505;BME280;16452;54.174;12.092;2022-08-19T05:11:35;101009.78;;;24.90;100.00
29505;BME280;16452;54.174;12.092;2022-08-19T05:14:05;101015.41;;;24.87;100.00
29505;BME280;16452;54.174;12.092;2022-08-19T05:16:31;101007.78;;;24.92;100.00
29505;BME280;16452;54.174;12.092;2022-08-19T05:18:57;101006.97;;;24.91;100.00
29505;BME280;16452;54.174;12.092;2022-08-19T05:21:42;101005.78;;;24.94;100.00
29505;BME280;16452;54.174;12.092;2022-08-19T05:24:27;101016.97;;;24.98;100.00
29505;BME280;16452;54.174;12.092;2022-08-19T05:26:54;101015.94;;;25.07;100.00
29505;BME280;16452;54.174;12.092;2022-08-19T05:29:25;101020.41;;;25.22;100.00
29505;BME280;16452;54.174;12.092;2022-08-19T05:31:52;101031.59;;;25.18;100.00
29505;BME280;16452;54.174;12.092;2022-08-19T05:34:21;101026.09;;;25.19;100.00
29505;BME280;16452;54.174;12.092;2022-08-19T05:36:49;101024.25;;;25.28;100.00
29505;BME280;16452;54.174;12.092;2022-08-19T05:39:20;101034.25;;;25.18;100.00
29505;BME280;16452;54.174;12.092;2022-08-19T05:41:51;101046.59;;;24.94;100.00
29505;BME280;16452;54.174;12.092;2022-08-19T05:44:18;101038.06;;;24.83;100.00
29505;BME280;16452;54.174;12.092;2022-08-19T05:46:46;101027.28;;;25.09;100.00
29505;BME280;16452;54.174;12.092;2022-08-19T05:49:20;101027.44;;;25.15;100.00
29505;BME280;16452;54.174;12.092;2022-08-19T05:51:47;101030.13;;;25.15;100.00
29505;BME280;16452;54.174;12.092;2022-08-19T05:54:12;101021.78;;;25.26;100.00
29505;BME280;16452;54.174;12.092;2022-08-19T05:56:40;101023.28;;;25.13;100.00
29505;BME280;16452;54.174;12.092;2022-08-19T05:59:09;101023.59;;;25.26;100.00
29505;BME280;16452;54.174;12.092;2022-08-19T06:01:42;101030.13;;;25.15;100.00
29505;BME280;16452;54.174;12.092;2022-08-19T06:04:08;101027.78;;;25.12;100.00
29505;BME280;16452;54.174;12.092;2022-08-19T06:06:35;101028.09;;;25.17;100.00
29505;BME280;16452;54.174;12.092;2022-08-19T06:09:04;101026.78;;;25.13;100.00
29505;BME280;16452;54.174;12.092;2022-08-19T06:11:44;101027.44;;;25.15;100.00
29505;BME280;16452;54.174;12.092;2022-08-19T06:14:17;101019.09;;;25.18;100.00
29505;BME280;16452;54.174;12.092;2022-08-19T06:16:44;101014.94;;;25.16;100.00
29505;BME280;16452;54.174;12.092;2022-08-19T06:19:15;101013.41;;;25.29;100.00
29505;BME280;16452;54.174;12.092;2022-08-19T06:21:44;101005.56;;;25.36;100.00
29505;BME280;16452;54.174;12.092;2022-08-19T06:24:14;101010.09;;;25.27;100.00
29505;BME280;16452;54.174;12.092;2022-08-19T06:26:43;101009.09;;;25.12;100.00
29505;BME280;16452;54.174;12.092;2022-08-19T06:29:11;101007.91;;;25.23;100.00
29505;BME280;16452;54.174;12.092;2022-08-19T06:31:43;101007.56;;;25.34;100.00
29505;BME280;16452;54.174;12.092;2022-08-19T06:34:09;101017.75;;;25.30;100.00
29505;BME280;16452;54.174;12.092;2022-08-19T06:36:40;101010.91;;;25.28;100.00
29505;BME280;16452;54.174;12.092;2022-08-19T06:39:12;101012.69;;;25.52;100.00
29505;BME280;16452;54.174;12.092;2022-08-19T06:41:42;101007.88;;;25.47;100.00
29505;BME280;16452;54.174;12.092;2022-08-19T06:44:09;101007.34;;;25.52;100.00
29505;BME280;16452;54.174;12.092;2022-08-19T06:46:37;101001.38;;;25.42;100.00
29505;BME280;16452;54.174;12.092;2022-08-19T06:49:03;101005.94;;;25.25;100.00
29505;BME280;16452;54.174;12.092;2022-08-19T06:51:29;100995.22;;;25.41;100.00
29505;BME280;16452;54.174;12.092;2022-08-19T06:53:56;100996.25;;;25.24;100.00
29505;BME280;16452;54.174;12.092;2022-08-19T06:56:28;100988.75;;;25.19;100.00
29505;BME280;16452;54.174;12.092;2022-08-19T06:59:00;100981.56;;;25.36;100.00
29505;BME280;16452;54.174;12.092;2022-08-19T07:01:27;100982.44;;;25.20;100.00
29505;BME280;16452;54.174;12.092;2022-08-19T07:03:52;100987.78;;;25.04;100.00
29505;BME280;16452;54.174;12.092;2022-08-19T07:06:19;100985.59;;;25.00;100.00
29505;BME280;16452;54.174;12.092;2022-08-19T07:08:47;100984.25;;;24.63;100.00
29505;BME280;16452;54.174;12.092;2022-08-19T07:11:16;100985.63;;;24.91;100.00
29505;BME280;16452;54.174;12.092;2022-08-19T07:13:46;100983.75;;;24.51;100.00
29505;BME280;16452;54.174;12.092;2022-08-19T07:16:17;100993.75;;;24.58;100.00
29505;BME280;16452;54.174;12.092;2022-08-19T07:18:50;100990.56;;;24.70;100.00
29505;BME280;16452;54.174;12.092;2022-08-19T07:21:23;101002.94;;;24.79;100.00
29505;BME280;16452;54.174;12.092;2022-08-19T07:23:50;100996.22;;;24.43;100.00
29505;BME280;16452;54.174;12.092;2022-08-19T07:26:29;101005.91;;;24.68;100.00
29505;BME280;16452;54.174;12.092;2022-08-19T07:28:57;101012.22;;;24.51;100.00
29505;BME280;16452;54.174;12.092;2022-08-19T07:31:26;101009.38;;;24.44;100.00
29505;BME280;16452;54.174;12.092;2022-08-19T07:33:53;101002.41;;;24.68;100.00
29505;BME280;16452;54.174;12.092;2022-08-19T07:36:25;100999.94;;;24.74;100.00
29505;BME280;16452;54.174;12.092;2022-08-19T07:39:00;101003.25;;;24.76;100.00
29505;BME280;16452;54.174;12.092;2022-08-19T07:41:28;101011.63;;;24.98;100.00
29505;BME280;16452;54.174;12.092;2022-08-19T07:43:58;101009.63;;;25.08;100.00
29505;BME280;16452;54.174;12.092;2022-08-19T07:46:33;101016.25;;;24.87;100.00
29505;BME280;16452;54.174;12.092;2022-08-19T07:48:59;101014.88;;;24.59;100.00
29505;BME280;16452;54.174;12.092;2022-08-19T07:51:27;101015.56;;;24.61;100.00
29505;BME280;16452;54.174;12.092;2022-08-19T07:53:54;101016.03;;;24.48;100.00
29505;BME280;16452;54.174;12.092;2022-08-19T07:56:21;101024.53;;;24.44;100.00
29505;BME280;16452;54.174;12.092;2022-08-19T07:58:49;101019.69;;;24.47;100.00
29505;BME280;16452;54.174;12.092;2022-08-19T08:01:23;101012.66;;;24.22;100.00
29505;BME280;16452;54.174;12.092;2022-08-19T08:03:51;101021.84;;;24.28;100.00
29505;BME280;16452;54.174;12.092;2022-08-19T08:06:36;101014.50;;;24.22;100.00
29505;BME280;16452;54.174;12.092;2022-08-19T08:09:32;101021.94;;;24.18;100.00
29505;BME280;16452;54.174;12.092;2022-08-19T08:12:04;101017.50;;;24.35;100.00
29505;BME280;16452;54.174;12.092;2022-08-19T08:14:39;101025.53;;;24.43;100.00
29505;BME280;16452;54.174;12.092;2022-08-19T08:17:07;101023.31;;;24.22;100.00
29505;BME280;16452;54.174;12.092;2022-08-19T08:19:34;101026.25;;;24.11;100.00
29505;BME280;16452;54.174;12.092;2022-08-19T08:22:01;101024.97;;;24.23;100.00
29505;BME280;16452;54.174;12.092;2022-08-19T08:24:30;101016.69;;;24.34;100.00
29505;BME280;16452;54.174;12.092;2022-08-19T08:26:58;101016.16;;;24.23;100.00
29505;BME280;16452;54.174;12.092;2022-08-19T08:29:28;101021.38;;;24.48;100.00
29505;BME280;16452;54.174;12.092;2022-08-19T08:31:55;101030.53;;;24.54;100.00
29505;BME280;16452;54.174;12.092;2022-08-19T08:34:21;101027.84;;;24.38;100.00
29505;BME280;16452;54.174;12.092;2022-08-19T08:36:47;101030.53;;;24.46;100.00
29505;BME280;16452;54.174;12.092;2022-08-19T08:39:19;101037.19;;;24.58;100.00
29505;BME280;16452;54.174;12.092;2022-08-19T08:45:00;101035.75;;;24.80;100.00
29505;BME280;16452;54.174;12.092;2022-08-19T08:47:34;101028.41;;;24.58;100.00
29505;BME280;16452;54.174;12.092;2022-08-19T08:50:06;101036.38;;;24.66;100.00
29505;BME280;16452;54.174;12.092;2022-08-19T08:52:39;101034.03;;;24.54;100.00
29505;BME280;16452;54.174;12.092;2022-08-19T08:55:17;101046.56;;;24.78;100.00
29505;BME280;16452;54.174;12.092;2022-08-19T08:58:05;101049.78;;;24.98;100.00
29505;BME280;16452;54.174;12.092;2022-08-19T09:00:39;101044.59;;;25.05;100.00
29505;BME280;16452;54.174;12.092;2022-08-19T09:03:26;101049.44;;;25.01;100.00
29505;BME280;16452;54.174;12.092;2022-08-19T09:06:06;101052.59;;;25.13;100.00
29505;BME280;16452;54.174;12.092;2022-08-19T09:08:50;101054.28;;;25.14;100.00
29505;BME280;16452;54.174;12.092;2022-08-19T09:14:37;101047.28;;;24.97;100.00
29505;BME280;16452;54.174;12.092;2022-08-19T09:17:09;101053.59;;;25.12;100.00
29505;BME280;16452;54.174;12.092;2022-08-19T09:20:04;101052.59;;;25.29;100.00
29505;BME280;16452;54.174;12.092;2022-08-19T09:22:34;101052.44;;;25.22;100.00
29505;BME280;16452;54.174;12.092;2022-08-19T09:25:02;101055.75;;;25.16;100.00
29505;BME280;16452;54.174;12.092;2022-08-19T09:27:37;101045.59;;;25.12;100.00
29505;BME280;16452;54.174;12.092;2022-08-19T09:30:06;101051.78;;;25.20;100.00
29505;BME280;16452;54.174;12.092;2022-08-19T09:32:33;101053.44;;;25.13;100.00
29505;BME280;16452;54.174;12.092;2022-08-19T09:34:59;101062.94;;;25.24;100.00
29505;BME280;16452;54.174;12.092;2022-08-19T09:37:26;101057.28;;;25.19;100.00
29505;BME280;16452;54.174;12.092;2022-08-19T09:39:53;101061.13;;;25.32;100.00
29505;BME280;16452;54.174;12.092;2022-08-19T09:42:19;101062.97;;;25.16;100.00
29505;BME280;16452;54.174;12.092;2022-08-19T09:44:46;101058.13;;;25.19;100.00
29505;BME280;16452;54.174;12.092;2022-08-19T09:47:13;101056.13;;;25.13;100.00
29505;BME280;16452;54.174;12.092;2022-08-19T09:49:40;101053.09;;;25.16;100.00
29505;BME280;16452;54.174;12.092;2022-08-19T09:52:09;101061.59;;;25.28;100.00
29505;BME280;16452;54.174;12.092;2022-08-19T09:54:36;101055.75;;;25.41;100.00
29505;BME280;16452;54.174;12.092;2022-08-19T09:57:02;101058.75;;;25.46;100.00
29505;BME280;16452;54.174;12.092;2022-08-19T09:59:28;101062.91;;;25.48;100.00
29505;BME280;16452;54.174;12.092;2022-08-19T10:01:55;101052.25;;;25.40;100.00
29505;BME280;16452;54.174;12.092;2022-08-19T10:04:22;101057.75;;;25.22;100.00
29505;BME280;16452;54.174;12.092;2022-08-19T10:06:50;101052.59;;;25.13;100.00
29505;BME280;16452;54.174;12.092;2022-08-19T10:09:17;101059.59;;;24.89;100.00
29505;BME280;16452;54.174;12.092;2022-08-19T10:11:45;101057.94;;;25.13;100.00
29505;BME280;16452;54.174;12.092;2022-08-19T10:14:14;101059.94;;;25.03;100.00
29505;BME280;16452;54.174;12.092;2022-08-19T10:16:40;101058.75;;;24.81;100.00
29505;BME280;16452;54.174;12.092;2022-08-19T10:19:07;101055.44;;;24.95;100.00
29505;BME280;16452;54.174;12.092;2022-08-19T10:21:34;101045.03;;;24.60;100.00
29505;BME280;16452;54.174;12.092;2022-08-19T10:24:04;101055.44;;;24.95;100.00
29505;BME280;16452;54.174;12.092;2022-08-19T10:26:36;101059.13;;;25.02;100.00
29505;BME280;16452;54.174;12.092;2022-08-19T10:29:05;101056.28;;;25.12;100.00
29505;BME280;16452;54.174;12.092;2022-08-19T10:31:33;101064.56;;;24.84;100.00
29505;BME280;16452;54.174;12.092;2022-08-19T10:34:00;101055.06;;;24.74;100.00
29505;BME280;16452;54.174;12.092;2022-08-19T10:36:33;101059.94;;;25.03;100.00
29505;BME280;16452;54.174;12.092;2022-08-19T10:39:06;101065.63;;;25.08;100.00
29505;BME280;16452;54.174;12.092;2022-08-19T10:41:36;101054.09;;;25.23;100.00
29505;BME280;16452;54.174;12.092;2022-08-19T10:44:07;101052.44;;;25.14;100.00
29505;BME280;16452;54.174;12.092;2022-08-19T10:46:39;101069.78;;;25.18;100.00
29505;BME280;16452;54.174;12.092;2022-08-19T10:49:09;101058.88;;;24.87;100.00
29505;BME280;16452;54.174;12.092;2022-08-19T10:51:39;101053.28;;;25.15;100.00
29505;BME280;16452;54.174;12.092;2022-08-19T10:54:24;101054.63;;;25.27;100.00
29505;BME280;16452;54.174;12.092;2022-08-19T10:57:10;101053.91;;;25.49;100.00
29505;BME280;16452;54.174;12.092;2022-08-19T10:59:37;101053.44;;;25.62;100.00
29505;BME280;16452;54.174;12.092;2022-08-19T11:02:07;101061.63;;;25.20;100.00
29505;BME280;16452;54.174;12.092;2022-08-19T11:04:36;101054.25;;;25.38;100.00
29505;BME280;16452;54.174;12.092;2022-08-19T11:07:04;101058.09;;;25.35;100.00
29505;BME280;16452;54.174;12.092;2022-08-19T11:09:30;101059.94;;;25.03;100.00
29505;BME280;16452;54.174;12.092;2022-08-19T11:11:56;101063.59;;;25.18;100.00
29505;BME280;16452;54.174;12.092;2022-08-19T11:14:23;101058.28;;;25.18;100.00
29505;BME280;16452;54.174;12.092;2022-08-19T11:16:52;101053.25;;;25.31;100.00
29505;BME280;16452;54.174;12.092;2022-08-19T11:19:22;101055.09;;;25.22;100.00
29505;BME280;16452;54.174;12.092;2022-08-19T11:21:50;101050.44;;;25.24;100.00
29505;BME280;16452;54.174;12.092;2022-08-19T11:24:25;101052.25;;;25.24;100.00
29505;BME280;16452;54.174;12.092;2022-08-19T11:26:53;101053.28;;;25.07;100.00
29505;BME280;16452;54.174;12.092;2022-08-19T11:29:25;101057.09;;;25.28;100.00
29505;BME280;16452;54.174;12.092;2022-08-19T11:31:53;101062.06;;;25.40;100.00
29505;BME280;16452;54.174;12.092;2022-08-19T11:34:23;101064.63;;;25.33;100.00
29505;BME280;16452;54.174;12.092;2022-08-19T11:36:50;101066.59;;;25.23;100.00
29505;BME280;16452;54.174;12.092;2022-08-19T11:39:20;101060.44;;;25.30;100.00
29505;BME280;16452;54.174;12.092;2022-08-19T11:41:47;101063.94;;;25.31;100.00
29505;BME280;16452;54.174;12.092;2022-08-19T11:44:13;101062.06;;;25.40;100.00
29505;BME280;16452;54.174;12.092;2022-08-19T11:46:42;101066.44;;;25.24;100.00
29505;BME280;16452;54.174;12.092;2022-08-19T11:49:16;101060.28;;;25.08;100.00
29505;BME280;16452;54.174;12.092;2022-08-19T11:51:44;101062.44;;;25.20;100.00
29505;BME280;16452;54.174;12.092;2022-08-19T11:54:11;101064.28;;;25.20;100.00
29505;BME280;16452;54.174;12.092;2022-08-19T11:56:39;101067.44;;;24.99;100.00
29505;BME280;16452;54.174;12.092;2022-08-19T11:59:06;101066.63;;;25.15;100.00
29505;BME280;16452;54.174;12.092;2022-08-19T12:01:33;101070.94;;;25.08;100.00
29505;BME280;16452;54.174;12.092;2022-08-19T12:03:59;101068.44;;;25.06;100.00
29505;BME280;16452;54.174;12.092;2022-08-19T12:06:31;101071.94;;;24.99;100.00
29505;BME280;16452;54.174;12.092;2022-08-19T12:09:04;101069.44;;;25.05;100.00
29505;BME280;16452;54.174;12.092;2022-08-19T12:11:31;101067.78;;;25.12;100.00
29505;BME280;16452;54.174;12.092;2022-08-19T12:13:57;101061.09;;;25.16;100.00
29505;BME280;16452;54.174;12.092;2022-08-19T12:16:27;101059.59;;;25.22;100.00
29505;BME280;16452;54.174;12.092;2022-08-19T12:18:55;101049.94;;;25.05;100.00
29505;BME280;16452;54.174;12.092;2022-08-19T12:21:25;101055.44;;;25.03;100.00
29505;BME280;16452;54.174;12.092;2022-08-19T12:23:55;101050.59;;;24.90;100.00
29505;BME280;16452;54.174;12.092;2022-08-19T12:26:22;101051.53;;;24.65;100.00
29505;BME280;16452;54.174;12.092;2022-08-19T12:28:48;101052.22;;;24.83;100.00
29505;BME280;16452;54.174;12.092;2022-08-19T12:31:14;101049.06;;;24.80;100.00
29505;BME280;16452;54.174;12.092;2022-08-19T12:33:41;101043.56;;;24.81;100.00
29505;BME280;16452;54.174;12.092;2022-08-19T12:36:11;101040.22;;;24.71;100.00
29505;BME280;16452;54.174;12.092;2022-08-19T12:38:39;101041.38;;;24.77;100.00
29505;BME280;16452;54.174;12.092;2022-08-19T12:41:06;101043.41;;;24.83;100.00
29505;BME280;16452;54.174;12.092;2022-08-19T12:43:36;101048.44;;;24.94;100.00
29505;BME280;16452;54.174;12.092;2022-08-19T12:46:04;101046.25;;;25.30;100.00
29505;BME280;16452;54.174;12.092;2022-08-19T12:48:32;101043.88;;;25.51;100.00